sensor_id;sensor_type;location;lat;lon;timestamp;pressure;altitude;pressure_sealevel;temperature;humidity
64908;BME280;64365;-1.756;110.040;2023-02-15T00:00:38;102898.56;;;5.78;79.78
64908;BME280;64365;-1.756;110.040;2023-02-15T00:03:05;102892.56;;;5.72;78.89
64908;BME280;64365;-1.756;110.040;2023-02-15T00:05:31;102893.16;;;5.64;78.01
64908;BME280;64365;-1.756;110.040;2023-02-15T00:07:59;102892.91;;;5.60;80.04
64908;BME280;64365;-1.756;110.040;2023-02-15T00:10:26;102897.13;;;5.61;81.57
64908;BME280;64365;-1.756;110.040;2023-02-15T00:12:52;102892.13;;;5.60;79.98
64908;BME280;64365;-1.756;110.040;2023-02-15T00:15:19;102890.34;;;5.55;78.87
64908;BME280;64365;-1.756;110.040;2023-02-15T00:17:45;102886.41;;;5.52;80.45
64908;BME280;64365;-1.756;110.040;2023-02-15T00:20:12;102891.88;;;5.56;80.57
64908;BME280;64365;-1.756;110.040;2023-02-15T00:22:38;102890.09;;;5.51;80.18
64908;BME280;64365;-1.756;110.040;2023-02-15T00:25:06;102890.41;;;5.45;78.38
64908;BME280;64365;-1.756;110.040;2023-02-15T00:27:33;102880.16;;;5.43;77.54
64908;BME280;64365;-1.756;110.040;2023-02-15T00:30:00;102872.78;;;5.40;77.35
64908;BME280;64365;-1.756;110.040;2023-02-15T00:32:27;102875.69;;;5.38;77.56
64908;BME280;64365;-1.756;110.040;2023-02-15T00:34:53;102861.75;;;5.33;76.92
64908;BME280;64365;-1.756;110.040;2023-02-15T00:37:20;102864.66;;;5.31;77.21
64908;BME280;64365;-1.756;110.040;2023-02-15T00:39:46;102872.09;;;5.29;77.52
64908;BME280;64365;-1.756;110.040;2023-02-15T00:42:14;102867.63;;;5.25;81.15
64908;BME280;64365;-1.756;110.040;2023-02-15T00:44:41;102868.16;;;5.27;83.18
64908;BME280;64365;-1.756;110.040;2023-02-15T00:47:07;102863.38;;;5.29;80.35
64908;BME280;64365;-1.756;110.040;2023-02-15T00:49:34;102862.88;;;5.27;78.70
64908;BME280;64365;-1.756;110.040;2023-02-15T00:52:00;102863.94;;;5.26;77.90
64908;BME280;64365;-1.756;110.040;2023-02-15T00:54:27;102862.38;;;5.19;77.33
64908;BME280;64365;-1.756;110.040;2023-02-15T00:56:53;102862.94;;;5.16;79.01
64908;BME280;64365;-1.756;110.040;2023-02-15T00:59:21;102867.19;;;5.12;78.93
64908;BME280;64365;-1.756;110.040;2023-02-15T01:01:48;102844.34;;;4.97;79.71
64908;BME280;64365;-1.756;110.040;2023-02-15T01:04:15;102850.94;;;5.00;78.83
64908;BME280;64365;-1.756;110.040;2023-02-15T01:06:41;102855.44;;;4.99;81.91
64908;BME280;64365;-1.756;110.040;2023-02-15T01:09:08;102860.63;;;5.10;83.68
64908;BME280;64365;-1.756;110.040;2023-02-15T01:11:34;102852.72;;;5.10;80.82
64908;BME280;64365;-1.756;110.040;2023-02-15T01:14:02;102855.91;;;5.06;78.75
64908;BME280;64365;-1.756;110.040;2023-02-15T01:16:32;102849.31;;;5.04;78.05
64908;BME280;64365;-1.756;110.040;2023-02-15T01:19:00;102849.31;;;5.04;77.76
64908;BME280;64365;-1.756;110.040;2023-02-15T01:21:28;102837.22;;;4.98;78.05
64908;BME280;64365;-1.756;110.040;2023-02-15T01:23:55;102831.75;;;4.94;77.17
64908;BME280;64365;-1.756;110.040;2023-02-15T01:26:21;102834.38;;;4.94;79.74
64908;BME280;64365;-1.756;110.040;2023-02-15T01:28:48;102830.94;;;4.94;79.88
64908;BME280;64365;-1.756;110.040;2023-02-15T01:31:17;102825.72;;;4.88;79.36
64908;BME280;64365;-1.756;110.040;2023-02-15T01:33:46;102816.47;;;4.91;77.55
64908;BME280;64365;-1.756;110.040;2023-02-15T01:36:13;102821.22;;;4.89;77.95
64908;BME280;64365;-1.756;110.040;2023-02-15T01:38:42;102822.84;;;4.85;79.36
64908;BME280;64365;-1.756;110.040;2023-02-15T01:41:09;102818.66;;;4.79;81.25
64908;BME280;64365;-1.756;110.040;2023-02-15T01:43:50;102819.97;;;4.76;78.96
64908;BME280;64365;-1.756;110.040;2023-02-15T01:46:19;102813.66;;;4.77;78.13
64908;BME280;64365;-1.756;110.040;2023-02-15T01:48:50;102817.13;;;4.72;77.84
64908;BME280;64365;-1.756;110.040;2023-02-15T01:51:21;102809.25;;;4.67;78.83
64908;BME280;64365;-1.756;110.040;2023-02-15T01:53:52;102803.22;;;4.67;80.27
64908;BME280;64365;-1.756;110.040;2023-02-15T01:56:22;102808.47;;;4.67;79.98
64908;BME280;64365;-1.756;110.040;2023-02-15T01:58:51;102809.25;;;4.67;79.59
64908;BME280;64365;-1.756;110.040;2023-02-15T02:01:19;102800.53;;;4.72;78.94
64908;BME280;64365;-1.756;110.040;2023-02-15T02:03:56;102790.03;;;4.67;78.24
64908;BME280;64365;-1.756;110.040;2023-02-15T02:06:26;102791.88;;;4.66;78.26
64908;BME280;64365;-1.756;110.040;2023-02-15T02:08:53;102789.03;;;4.58;79.54
64908;BME280;64365;-1.756;110.040;2023-02-15T02:11:20;102794.81;;;4.60;80.42
64908;BME280;64365;-1.756;110.040;2023-02-15T02:13:47;102792.72;;;4.57;80.31
64908;BME280;64365;-1.756;110.040;2023-02-15T02:16:19;102798.00;;;4.57;82.60
64908;BME280;64365;-1.756;110.040;2023-02-15T02:18:58;102793.28;;;4.53;81.34
64908;BME280;64365;-1.756;110.040;2023-02-15T02:21:51;102780.13;;;4.48;79.60
64908;BME280;64365;-1.756;110.040;2023-02-15T02:24:35;102775.66;;;4.49;79.07
64908;BME280;64365;-1.756;110.040;2023-02-15T02:27:30;102780.44;;;4.42;78.72
64908;BME280;64365;-1.756;110.040;2023-02-15T02:30:34;102772.28;;;4.38;79.92
64908;BME280;64365;-1.756;110.040;2023-02-15T02:33:25;102767.56;;;4.40;78.71
64908;BME280;64365;-1.756;110.040;2023-02-15T02:36:00;102771.22;;;4.39;79.06
64908;BME280;64365;-1.756;110.040;2023-02-15T02:38:37;102765.72;;;4.35;77.83
64908;BME280;64365;-1.756;110.040;2023-02-15T02:41:14;102765.50;;;4.32;78.39
64908;BME280;64365;-1.756;110.040;2023-02-15T02:43:48;102764.41;;;4.33;78.84
64908;BME280;64365;-1.756;110.040;2023-02-15T02:46:20;102768.63;;;4.34;81.29
64908;BME280;64365;-1.756;110.040;2023-02-15T02:48:49;102770.75;;;4.32;81.26
64908;BME280;64365;-1.756;110.040;2023-02-15T02:51:17;102762.06;;;4.26;81.06
64908;BME280;64365;-1.756;110.040;2023-02-15T02:53:49;102759.72;;;4.25;81.31
64908;BME280;64365;-1.756;110.040;2023-02-15T02:56:21;102761.84;;;4.22;79.40
64908;BME280;64365;-1.756;110.040;2023-02-15T02:58:56;102751.88;;;4.19;78.42
64908;BME280;64365;-1.756;110.040;2023-02-15T03:01:27;102750.31;;;4.13;77.93
64908;BME280;64365;-1.756;110.040;2023-02-15T03:04:01;102745.59;;;4.10;77.91
64908;BME280;64365;-1.756;110.040;2023-02-15T03:06:32;102744.50;;;4.11;77.96
64908;BME280;64365;-1.756;110.040;2023-02-15T03:09:08;102739.00;;;4.13;77.29
64908;BME280;64365;-1.756;110.040;2023-02-15T03:11:40;102736.38;;;4.13;77.23
64908;BME280;64365;-1.756;110.040;2023-02-15T03:14:07;102730.59;;;4.11;76.88
64908;BME280;64365;-1.756;110.040;2023-02-15T03:16:34;102719.03;;;4.07;77.33
64908;BME280;64365;-1.756;110.040;2023-02-15T03:19:06;102715.88;;;4.04;84.63
64908;BME280;64365;-1.756;110.040;2023-02-15T03:21:39;102721.84;;;4.20;87.80
64908;BME280;64365;-1.756;110.040;2023-02-15T03:24:10;102722.38;;;4.22;82.17
64908;BME280;64365;-1.756;110.040;2023-02-15T03:26:40;102721.84;;;4.20;80.04
64908;BME280;64365;-1.756;110.040;2023-02-15T03:29:10;102718.19;;;4.16;79.42
64908;BME280;64365;-1.756;110.040;2023-02-15T03:31:40;102721.09;;;4.10;78.75
64908;BME280;64365;-1.756;110.040;2023-02-15T03:34:12;102721.94;;;4.05;79.37
64908;BME280;64365;-1.756;110.040;2023-02-15T03:36:44;102720.38;;;3.99;79.35
64908;BME280;64365;-1.756;110.040;2023-02-15T03:39:18;102717.25;;;3.97;78.47
64908;BME280;64365;-1.756;110.040;2023-02-15T03:41:51;102713.03;;;3.96;78.64
64908;BME280;64365;-1.756;110.040;2023-02-15T03:44:25;102712.50;;;3.94;81.84
64908;BME280;64365;-1.756;110.040;2023-02-15T03:46:58;102706.94;;;4.00;84.54
64908;BME280;64365;-1.756;110.040;2023-02-15T03:49:32;102703.25;;;4.01;80.16
64908;BME280;64365;-1.756;110.040;2023-02-15T03:52:04;102707.75;;;4.01;79.63
64908;BME280;64365;-1.756;110.040;2023-02-15T03:54:33;102707.19;;;4.04;81.34
64908;BME280;64365;-1.756;110.040;2023-02-15T03:57:14;102705.13;;;4.01;79.80
64908;BME280;64365;-1.756;110.040;2023-02-15T03:59:59;102706.41;;;4.03;78.17
64908;BME280;64365;-1.756;110.040;2023-02-15T04:03:00;102703.56;;;3.95;77.97
64908;BME280;64365;-1.756;110.040;2023-02-15T04:05:32;102697.78;;;3.93;78.25
64908;BME280;64365;-1.756;110.040;2023-02-15T04:07:58;102693.59;;;3.92;78.11
64908;BME280;64365;-1.756;110.040;2023-02-15T04:10:25;102678.38;;;3.83;79.25
64908;BME280;64365;-1.756;110.040;2023-02-15T04:13:09;102685.72;;;3.86;78.42
64908;BME280;64365;-1.756;110.040;2023-02-15T04:15:36;102687.00;;;3.89;77.98
64908;BME280;64365;-1.756;110.040;2023-02-15T04:18:20;102677.31;;;3.84;77.54
64908;BME280;64365;-1.756;110.040;2023-02-15T04:20:48;102687.84;;;3.84;77.09
64908;BME280;64365;-1.756;110.040;2023-02-15T04:23:32;102682.59;;;3.79;77.64
64908;BME280;64365;-1.756;110.040;2023-02-15T04:26:16;102681.84;;;3.74;78.03
64908;BME280;64365;-1.756;110.040;2023-02-15T04:28:43;102679.97;;;3.74;78.01
64908;BME280;64365;-1.756;110.040;2023-02-15T04:31:09;102677.63;;;3.73;78.23
64908;BME280;64365;-1.756;110.040;2023-02-15T04:33:36;102675.78;;;3.73;78.79
64908;BME280;64365;-1.756;110.040;2023-02-15T04:36:04;102673.69;;;3.70;79.51
64908;BME280;64365;-1.756;110.040;2023-02-15T04:38:31;102675.78;;;3.73;78.99
64908;BME280;64365;-1.756;110.040;2023-02-15T04:40:57;102667.38;;;3.71;78.29
64908;BME280;64365;-1.756;110.040;2023-02-15T04:43:24;102670.50;;;3.73;83.64
64908;BME280;64365;-1.756;110.040;2023-02-15T04:45:51;102666.78;;;3.84;85.20
64908;BME280;64365;-1.756;110.040;2023-02-15T04:48:17;102663.53;;;4.03;89.96
64908;BME280;64365;-1.756;110.040;2023-02-15T04:50:44;102656.91;;;4.11;86.02
64908;BME280;64365;-1.756;110.040;2023-02-15T04:53:12;102664.78;;;4.11;83.37
64908;BME280;64365;-1.756;110.040;2023-02-15T04:55:39;102668.19;;;4.16;87.49
64908;BME280;64365;-1.756;110.040;2023-02-15T04:58:05;102665.50;;;4.21;85.21
64908;BME280;64365;-1.756;110.040;2023-02-15T05:00:32;102654.00;;;4.12;81.90
64908;BME280;64365;-1.756;110.040;2023-02-15T05:02:58;102661.41;;;4.05;80.61
64908;BME280;64365;-1.756;110.040;2023-02-15T05:05:25;102666.69;;;4.00;82.13
64908;BME280;64365;-1.756;110.040;2023-02-15T05:07:52;102656.47;;;3.93;81.28
64908;BME280;64365;-1.756;110.040;2023-02-15T05:10:21;102653.88;;;3.83;79.79
64908;BME280;64365;-1.756;110.040;2023-02-15T05:12:48;102657.38;;;3.73;80.25
64908;BME280;64365;-1.756;110.040;2023-02-15T05:15:14;102666.31;;;3.72;79.19
64908;BME280;64365;-1.756;110.040;2023-02-15T05:17:41;102667.13;;;3.67;79.09
64908;BME280;64365;-1.756;110.040;2023-02-15T05:20:08;102660.28;;;3.66;80.01
64908;BME280;64365;-1.756;110.040;2023-02-15T05:22:35;102661.09;;;3.67;81.11
64908;BME280;64365;-1.756;110.040;2023-02-15T05:25:02;102666.31;;;3.72;81.54
64908;BME280;64365;-1.756;110.040;2023-02-15T05:27:47;102653.50;;;3.55;82.21
64908;BME280;64365;-1.756;110.040;2023-02-15T05:30:31;102661.09;;;3.67;81.42
64908;BME280;64365;-1.756;110.040;2023-02-15T05:32:58;102660.56;;;3.65;80.05
64908;BME280;64365;-1.756;110.040;2023-02-15T05:35:24;102650.06;;;3.60;79.94
64908;BME280;64365;-1.756;110.040;2023-02-15T05:37:51;102635.59;;;3.57;79.76
64908;BME280;64365;-1.756;110.040;2023-02-15T05:40:18;102613.06;;;3.35;79.98
64908;BME280;64365;-1.756;110.040;2023-02-15T05:42:44;102656.91;;;3.61;81.90
64908;BME280;64365;-1.756;110.040;2023-02-15T05:45:12;102653.50;;;3.60;80.23
64908;BME280;64365;-1.756;110.040;2023-02-15T05:47:39;102643.75;;;3.61;79.51
64908;BME280;64365;-1.756;110.040;2023-02-15T05:50:06;102645.63;;;3.55;79.26
64908;BME280;64365;-1.756;110.040;2023-02-15T05:52:33;102654.25;;;3.61;81.09
64908;BME280;64365;-1.756;110.040;2023-02-15T05:55:00;102650.59;;;3.62;81.01
64908;BME280;64365;-1.756;110.040;2023-02-15T05:57:27;102655.31;;;3.60;79.91
64908;BME280;64365;-1.756;110.040;2023-02-15T05:59:54;102655.31;;;3.60;80.80
64908;BME280;64365;-1.756;110.040;2023-02-15T06:02:22;102645.63;;;3.55;78.93
64908;BME280;64365;-1.756;110.040;2023-02-15T06:04:48;102633.31;;;3.45;79.13
64908;BME280;64365;-1.756;110.040;2023-02-15T06:07:15;102642.97;;;3.55;79.76
64908;BME280;64365;-1.756;110.040;2023-02-15T06:09:42;102645.88;;;3.53;79.34
64908;BME280;64365;-1.756;110.040;2023-02-15T06:12:08;102642.22;;;3.54;79.62
64908;BME280;64365;-1.756;110.040;2023-02-15T06:14:35;102630.88;;;3.54;79.11
64908;BME280;64365;-1.756;110.040;2023-02-15T06:17:01;102633.53;;;3.54;79.59
64908;BME280;64365;-1.756;110.040;2023-02-15T06:19:29;102618.59;;;3.44;80.81
64908;BME280;64365;-1.756;110.040;2023-02-15T06:21:56;102634.31;;;3.54;80.64
64908;BME280;64365;-1.756;110.040;2023-02-15T06:24:23;102621.75;;;3.41;79.89
64908;BME280;64365;-1.756;110.040;2023-02-15T06:26:49;102630.63;;;3.56;80.98
64908;BME280;64365;-1.756;110.040;2023-02-15T06:29:16;102636.16;;;3.54;81.04
64908;BME280;64365;-1.756;110.040;2023-02-15T06:31:42;102638.50;;;3.61;80.22
64908;BME280;64365;-1.756;110.040;2023-02-15T06:34:09;102630.59;;;3.61;79.28
64908;BME280;64365;-1.756;110.040;2023-02-15T06:36:37;102629.56;;;3.57;79.60
64908;BME280;64365;-1.756;110.040;2023-02-15T06:39:04;102634.31;;;3.54;81.14
64908;BME280;64365;-1.756;110.040;2023-02-15T06:41:31;102638.22;;;3.62;83.80
64908;BME280;64365;-1.756;110.040;2023-02-15T06:43:58;102632.47;;;3.60;82.26
64908;BME280;64365;-1.756;110.040;2023-02-15T06:46:24;102647.16;;;3.61;80.08
64908;BME280;64365;-1.756;110.040;2023-02-15T06:48:51;102638.50;;;3.56;79.37
64908;BME280;64365;-1.756;110.040;2023-02-15T06:51:17;102640.09;;;3.51;79.03
64908;BME280;64365;-1.756;110.040;2023-02-15T06:53:45;102629.84;;;3.50;79.05
64908;BME280;64365;-1.756;110.040;2023-02-15T06:56:12;102636.69;;;3.51;79.50
64908;BME280;64365;-1.756;110.040;2023-02-15T06:58:39;102630.38;;;3.52;80.61
64908;BME280;64365;-1.756;110.040;2023-02-15T07:01:07;102623.56;;;3.46;81.44
64908;BME280;64365;-1.756;110.040;2023-02-15T07:03:35;102637.44;;;3.62;82.32
64908;BME280;64365;-1.756;110.040;2023-02-15T07:06:04;102622.69;;;3.66;82.65
64908;BME280;64365;-1.756;110.040;2023-02-15T07:08:33;102634.72;;;3.77;81.40
64908;BME280;64365;-1.756;110.040;2023-02-15T07:11:01;102616.59;;;3.76;82.54
64908;BME280;64365;-1.756;110.040;2023-02-15T07:13:42;102630.44;;;3.92;82.63
64908;BME280;64365;-1.756;110.040;2023-02-15T07:16:09;102620.94;;;4.01;81.86
64908;BME280;64365;-1.756;110.040;2023-02-15T07:18:36;102616.72;;;4.00;81.61
64908;BME280;64365;-1.756;110.040;2023-02-15T07:21:03;102624.03;;;4.08;81.93
64908;BME280;64365;-1.756;110.040;2023-02-15T07:23:29;102617.16;;;4.12;82.41
64908;BME280;64365;-1.756;110.040;2023-02-15T07:25:56;102613.94;;;4.20;81.59
64908;BME280;64365;-1.756;110.040;2023-02-15T07:28:25;102611.31;;;4.20;81.20
64908;BME280;64365;-1.756;110.040;2023-02-15T07:30:52;102612.00;;;4.31;82.14
64908;BME280;64365;-1.756;110.040;2023-02-15T07:33:19;102574.69;;;4.24;81.72
64908;BME280;64365;-1.756;110.040;2023-02-15T07:35:53;102598.22;;;4.45;82.88
64908;BME280;64365;-1.756;110.040;2023-02-15T07:38:21;102590.88;;;4.42;81.49
64908;BME280;64365;-1.756;110.040;2023-02-15T07:40:48;102594.78;;;4.49;80.84
64908;BME280;64365;-1.756;110.040;2023-02-15T07:43:14;102590.31;;;4.45;81.68
64908;BME280;64365;-1.756;110.040;2023-02-15T07:45:43;102599.72;;;4.56;80.79
64908;BME280;64365;-1.756;110.040;2023-02-15T07:48:10;102592.59;;;4.57;81.14
64908;BME280;64365;-1.756;110.040;2023-02-15T07:50:36;102590.94;;;4.66;82.00
64908;BME280;64365;-1.756;110.040;2023-02-15T07:53:03;102580.84;;;4.73;82.50
64908;BME280;64365;-1.756;110.040;2023-02-15T07:55:30;102583.78;;;4.96;82.18
64908;BME280;64365;-1.756;110.040;2023-02-15T07:57:57;102598.28;;;5.17;80.26
64908;BME280;64365;-1.756;110.040;2023-02-15T08:00:23;102589.56;;;5.41;79.92
64908;BME280;64365;-1.756;110.040;2023-02-15T08:02:54;102590.09;;;5.62;79.30
64908;BME280;64365;-1.756;110.040;2023-02-15T08:05:35;102573.75;;;5.79;79.98
64908;BME280;64365;-1.756;110.040;2023-02-15T08:08:02;102579.38;;;6.11;79.35
64908;BME280;64365;-1.756;110.040;2023-02-15T08:10:29;102578.50;;;6.48;77.99
64908;BME280;64365;-1.756;110.040;2023-02-15T08:13:09;102581.47;;;6.74;76.36
64908;BME280;64365;-1.756;110.040;2023-02-15T08:15:36;102579.22;;;6.96;75.31
64908;BME280;64365;-1.756;110.040;2023-02-15T08:18:04;102574.31;;;7.31;75.62
64908;BME280;64365;-1.756;110.040;2023-02-15T08:20:31;102569.78;;;7.68;74.21
64908;BME280;64365;-1.756;110.040;2023-02-15T08:22:57;102571.66;;;7.90;73.66
64908;BME280;64365;-1.756;110.040;2023-02-15T08:25:24;102556.28;;;8.23;72.63
64908;BME280;64365;-1.756;110.040;2023-02-15T08:27:50;102557.94;;;8.65;71.38
64908;BME280;64365;-1.756;110.040;2023-02-15T08:30:17;102557.50;;;8.80;68.99
64908;BME280;64365;-1.756;110.040;2023-02-15T08:32:44;102548.78;;;8.88;67.72
64908;BME280;64365;-1.756;110.040;2023-02-15T08:35:12;102557.16;;;8.73;67.12
64908;BME280;64365;-1.756;110.040;2023-02-15T08:37:38;102558.28;;;8.81;66.79
64908;BME280;64365;-1.756;110.040;2023-02-15T08:40:06;102558.94;;;8.86;67.04
64908;BME280;64365;-1.756;110.040;2023-02-15T08:42:33;102556.41;;;8.81;66.49
64908;BME280;64365;-1.756;110.040;2023-02-15T08:44:59;102553.72;;;8.72;66.88
64908;BME280;64365;-1.756;110.040;2023-02-15T08:47:26;102549.53;;;8.71;66.86
64908;BME280;64365;-1.756;110.040;2023-02-15T08:49:53;102547.47;;;8.68;66.70
64908;BME280;64365;-1.756;110.040;2023-02-15T08:52:22;102552.25;;;8.57;67.46
64908;BME280;64365;-1.756;110.040;2023-02-15T08:54:49;102554.31;;;8.61;67.66
64908;BME280;64365;-1.756;110.040;2023-02-15T08:57:15;102552.19;;;8.71;67.66
64908;BME280;64365;-1.756;110.040;2023-02-15T08:59:42;102545.19;;;8.84;68.73
64908;BME280;64365;-1.756;110.040;2023-02-15T09:02:10;102553.34;;;9.14;67.53
64908;BME280;64365;-1.756;110.040;2023-02-15T09:04:36;102546.69;;;9.25;68.33
64908;BME280;64365;-1.756;110.040;2023-02-15T09:07:03;102548.38;;;9.56;67.70
64908;BME280;64365;-1.756;110.040;2023-02-15T09:09:32;102543.84;;;9.92;67.84
64908;BME280;64365;-1.756;110.040;2023-02-15T09:11:58;102543.13;;;10.21;65.91
64908;BME280;64365;-1.756;110.040;2023-02-15T09:14:26;102546.59;;;10.60;64.78
64908;BME280;64365;-1.756;110.040;2023-02-15T09:16:53;102538.38;;;11.04;63.88
64908;BME280;64365;-1.756;110.040;2023-02-15T09:19:21;102543.19;;;11.53;62.17
64908;BME280;64365;-1.756;110.040;2023-02-15T09:21:48;102532.00;;;11.93;59.60
64908;BME280;64365;-1.756;110.040;2023-02-15T09:24:16;102535.94;;;12.21;59.52
64908;BME280;64365;-1.756;110.040;2023-02-15T09:26:46;102531.59;;;12.16;57.76
64908;BME280;64365;-1.756;110.040;2023-02-15T09:29:13;102540.81;;;12.19;56.98
64908;BME280;64365;-1.756;110.040;2023-02-15T09:31:41;102534.78;;;11.97;56.89
64908;BME280;64365;-1.756;110.040;2023-02-15T09:34:09;102535.59;;;11.98;58.47
64908;BME280;64365;-1.756;110.040;2023-02-15T09:36:38;102537.72;;;12.04;57.57
64908;BME280;64365;-1.756;110.040;2023-02-15T09:39:08;102530.56;;;11.96;57.14
64908;BME280;64365;-1.756;110.040;2023-02-15T09:42:07;102528.25;;;12.07;56.94
64908;BME280;64365;-1.756;110.040;2023-02-15T09:44:50;102521.63;;;12.25;57.77
64908;BME280;64365;-1.756;110.040;2023-02-15T09:47:39;102528.97;;;12.53;56.58
64908;BME280;64365;-1.756;110.040;2023-02-15T09:50:12;102532.06;;;12.68;54.78
64908;BME280;64365;-1.756;110.040;2023-02-15T09:52:55;102529.63;;;12.75;54.59
64908;BME280;64365;-1.756;110.040;2023-02-15T09:55:48;102523.34;;;12.95;53.25
64908;BME280;64365;-1.756;110.040;2023-02-15T09:58:25;102525.53;;;13.18;53.33
64908;BME280;64365;-1.756;110.040;2023-02-15T10:01:02;102540.81;;;13.34;52.50
64908;BME280;64365;-1.756;110.040;2023-02-15T10:03:44;102527.94;;;13.36;51.45
64908;BME280;64365;-1.756;110.040;2023-02-15T10:06:27;102529.81;;;13.63;51.16
64908;BME280;64365;-1.756;110.040;2023-02-15T10:09:09;102520.50;;;13.73;50.54
64908;BME280;64365;-1.756;110.040;2023-02-15T10:11:53;102545.81;;;14.08;50.29
64908;BME280;64365;-1.756;110.040;2023-02-15T10:14:38;102548.06;;;14.22;50.52
64908;BME280;64365;-1.756;110.040;2023-02-15T10:17:22;102553.56;;;14.45;49.92
64908;BME280;64365;-1.756;110.040;2023-02-15T10:20:02;102538.31;;;14.29;49.58
64908;BME280;64365;-1.756;110.040;2023-02-15T10:22:41;102551.13;;;14.56;48.97
64908;BME280;64365;-1.756;110.040;2023-02-15T10:25:23;102556.72;;;14.82;49.92
64908;BME280;64365;-1.756;110.040;2023-02-15T10:27:55;102552.31;;;15.10;48.80
64908;BME280;64365;-1.756;110.040;2023-02-15T10:30:33;102544.03;;;15.15;46.70
64908;BME280;64365;-1.756;110.040;2023-02-15T10:33:06;102553.53;;;14.93;48.14
64908;BME280;64365;-1.756;110.040;2023-02-15T10:35:38;102560.59;;;14.65;47.82
64908;BME280;64365;-1.756;110.040;2023-02-15T10:38:20;102554.19;;;14.38;48.37
64908;BME280;64365;-1.756;110.040;2023-02-15T10:40:58;102552.66;;;14.21;49.67
64908;BME280;64365;-1.756;110.040;2023-02-15T10:43:54;102553.84;;;14.08;49.34
64908;BME280;64365;-1.756;110.040;2023-02-15T10:46:42;102550.19;;;13.84;50.31
64908;BME280;64365;-1.756;110.040;2023-02-15T10:49:25;102557.34;;;13.80;50.04
64908;BME280;64365;-1.756;110.040;2023-02-15T10:52:03;102553.91;;;13.51;50.08
64908;BME280;64365;-1.756;110.040;2023-02-15T10:54:37;102542.63;;;13.29;51.43
64908;BME280;64365;-1.756;110.040;2023-02-15T10:57:13;102535.28;;;13.39;51.81
64908;BME280;64365;-1.756;110.040;2023-02-15T10:59:59;102524.34;;;13.44;51.32
64908;BME280;64365;-1.756;110.040;2023-02-15T11:02:40;102521.69;;;13.44;51.37
64908;BME280;64365;-1.756;110.040;2023-02-15T11:05:21;102524.09;;;13.49;51.83
64908;BME280;64365;-1.756;110.040;2023-02-15T11:07:54;102520.59;;;13.61;51.57
64908;BME280;64365;-1.756;110.040;2023-02-15T11:10:29;102509.13;;;13.60;50.32
64908;BME280;64365;-1.756;110.040;2023-02-15T11:12:57;102502.22;;;13.59;51.05
64908;BME280;64365;-1.756;110.040;2023-02-15T11:15:30;102505.09;;;13.67;51.13
64908;BME280;64365;-1.756;110.040;2023-02-15T11:18:05;102486.31;;;13.63;51.09
64908;BME280;64365;-1.756;110.040;2023-02-15T11:20:38;102503.88;;;13.80;51.17
64908;BME280;64365;-1.756;110.040;2023-02-15T11:23:12;102494.06;;;13.84;50.96
64908;BME280;64365;-1.756;110.040;2023-02-15T11:25:43;102492.19;;;13.85;50.68
64908;BME280;64365;-1.756;110.040;2023-02-15T11:28:18;102488.41;;;13.86;50.88
64908;BME280;64365;-1.756;110.040;2023-02-15T11:30:49;102465.53;;;13.56;51.22
64908;BME280;64365;-1.756;110.040;2023-02-15T11:33:21;102484.75;;;13.78;51.11
64908;BME280;64365;-1.756;110.040;2023-02-15T11:35:54;102476.75;;;13.78;51.43
64908;BME280;64365;-1.756;110.040;2023-02-15T11:38:28;102466.56;;;13.68;51.89
64908;BME280;64365;-1.756;110.040;2023-02-15T11:40:58;102470.44;;;13.70;52.11
64908;BME280;64365;-1.756;110.040;2023-02-15T11:43:28;102444.16;;;13.72;52.52
64908;BME280;64365;-1.756;110.040;2023-02-15T11:45:56;102441.50;;;13.88;52.17
64908;BME280;64365;-1.756;110.040;2023-02-15T11:48:29;102451.31;;;14.00;51.55
64908;BME280;64365;-1.756;110.040;2023-02-15T11:50:58;102433.72;;;13.99;51.08
64908;BME280;64365;-1.756;110.040;2023-02-15T11:53:27;102430.72;;;13.85;51.49
64908;BME280;64365;-1.756;110.040;2023-02-15T11:55:56;102433.28;;;13.81;52.43
64908;BME280;64365;-1.756;110.040;2023-02-15T11:58:29;102431.31;;;13.78;52.76
64908;BME280;64365;-1.756;110.040;2023-02-15T12:01:01;102429.50;;;13.82;52.33
64908;BME280;64365;-1.756;110.040;2023-02-15T12:03:39;102429.59;;;13.86;52.17
64908;BME280;64365;-1.756;110.040;2023-02-15T12:06:14;102436.66;;;13.94;52.13
64908;BME280;64365;-1.756;110.040;2023-02-15T12:08:46;102433.56;;;13.76;51.68
64908;BME280;64365;-1.756;110.040;2023-02-15T12:11:17;102430.38;;;13.70;52.43
64908;BME280;64365;-1.756;110.040;2023-02-15T12:13:56;102407.13;;;13.71;51.70
64908;BME280;64365;-1.756;110.040;2023-02-15T12:16:24;102419.31;;;13.72;52.54
64908;BME280;64365;-1.756;110.040;2023-02-15T12:18:55;102407.78;;;13.68;52.44
64908;BME280;64365;-1.756;110.040;2023-02-15T12:21:28;102410.09;;;13.69;52.95
64908;BME280;64365;-1.756;110.040;2023-02-15T12:23:57;102421.75;;;13.77;52.60
64908;BME280;64365;-1.756;110.040;2023-02-15T12:26:25;102422.78;;;13.72;52.12
64908;BME280;64365;-1.756;110.040;2023-02-15T12:28:54;102412.59;;;13.62;52.97
64908;BME280;64365;-1.756;110.040;2023-02-15T12:31:27;102419.31;;;13.72;52.73
64908;BME280;64365;-1.756;110.040;2023-02-15T12:33:57;102407.88;;;13.71;52.64
64908;BME280;64365;-1.756;110.040;2023-02-15T12:36:30;102412.97;;;13.76;52.49
64908;BME280;64365;-1.756;110.040;2023-02-15T12:39:16;102406.50;;;13.77;52.36
64908;BME280;64365;-1.756;110.040;2023-02-15T12:41:46;102405.47;;;13.82;52.58
64908;BME280;64365;-1.756;110.040;2023-02-15T12:44:20;102394.06;;;13.85;52.57
64908;BME280;64365;-1.756;110.040;2023-02-15T12:46:57;102409.84;;;13.90;52.14
64908;BME280;64365;-1.756;110.040;2023-02-15T12:49:26;102400.13;;;13.82;52.44
64908;BME280;64365;-1.756;110.040;2023-02-15T12:51:55;102406.91;;;13.95;52.72
64908;BME280;64365;-1.756;110.040;2023-02-15T12:54:39;102402.75;;;14.14;52.25
64908;BME280;64365;-1.756;110.040;2023-02-15T12:57:24;102395.03;;;14.28;51.71